MMGM/GYM METAR and TAF weather

Enter ICAO airport designator
Station Type Date Time Source
MMGM METAR 2019/04/22 17:48 UTC NOAA

MMGM 221748Z 20012KT 10SM FEW015 26/19 A2986 RMK 8/100


Station Type Date Time Source
MMGM Decoded METAR 2019/04/22 17:48 UTC NOAA

Guaymas International Airport, Mexico (MMGM) 27-58N 110-56W
Apr 22, 2019 - 01:48 PM EDT / 2019.04.22 1748 UTC
Wind: from the SSW (200 degrees) at 14 MPH (12 KT):0
Visibility: 10 mile(s):0
Sky conditions: mostly clear
Temperature: 78 F (26 C)
Dew Point: 66 F (19 C)
Relative Humidity: 65%
Pressure (altimeter): 29.86 in. Hg (1011 hPa)
ob: MMGM 221748Z 20012KT 10SM FEW015 26/19 A2986 RMK 8/100
cycle: 18

Station Type Date Time Source
MMGM TAF 2019/04/22 18:58 UTC NOAA

TAF MMGM 221657Z 2218/2318 20012KT P6SM SKC
FM222100 24015KT P6SM SCT250
FM230300 30010KT P6SM SKC

Example: see airport list